Time;durP1;ratioP1;P1;durP2;ratioP2;P2;SDS_P1;SDS_P2;PMS_P1;PMS_P2;Temp;Humidity;BMP_temperature;BMP_pressure;BME280_temperature;BME280_humidity;BME280_pressure;Samples;Min_cycle;Max_cycle;Signal;HPM_P1;HPM_P2
2023/08/02 00:01:51;;;;;;;5.63;2.23;;;16.10;99.90;;;15.62;80.14;99505.78;5037213;28;20187;-74
2023/08/02 00:04:25;;;;;;;5.07;1.90;;;16.00;99.90;;;15.66;80.44;99509.69;5037204;28;20191;-74
2023/08/02 00:06:57;;;;;;;4.53;2.00;;;16.10;99.90;;;15.64;81.12;99509.09;5037189;28;20217;-74
2023/08/02 00:09:28;;;;;;;4.43;2.20;;;16.00;99.90;;;15.63;80.78;99515.53;5037103;28;20194;-74
2023/08/02 00:12:01;;;;;;;4.97;2.13;;;16.00;99.90;;;15.58;80.41;99503.75;5037057;28;20190;-74
2023/08/02 00:14:33;;;;;;;4.37;2.10;;;16.00;99.90;;;15.61;80.29;99512.22;5036947;28;20221;-74
2023/08/02 00:17:05;;;;;;;8.57;2.50;;;16.00;99.90;;;15.62;80.68;99510.34;5036918;28;20214;-74
2023/08/02 00:19:38;;;;;;;7.10;2.47;;;16.00;99.90;;;15.61;80.05;99504.13;5036944;28;20329;-74
2023/08/02 00:22:10;;;;;;;2.87;2.20;;;16.00;99.90;;;15.62;80.44;99497.69;5036589;28;20771;-74
2023/08/02 00:24:43;;;;;;;4.73;2.23;;;16.00;99.90;;;15.59;80.44;99490.03;5036762;28;20219;-74
2023/08/02 00:27:15;;;;;;;4.70;2.40;;;16.00;99.90;;;15.59;80.41;99494.59;5036786;28;20270;-74
2023/08/02 00:29:47;;;;;;;4.30;1.97;;;16.00;99.90;;;15.59;80.19;99490.03;5036685;28;20202;-74
2023/08/02 00:32:21;;;;;;;8.37;2.60;;;16.00;99.90;;;15.58;80.35;99495.66;5036675;28;20187;-74
2023/08/02 00:34:55;;;;;;;5.17;2.20;;;16.00;99.90;;;15.59;80.79;99500.00;5036546;28;20318;-74
2023/08/02 00:37:28;;;;;;;6.23;2.17;;;16.00;99.90;;;15.55;81.35;99499.59;5036491;28;20214;-74
2023/08/02 00:40:00;;;;;;;9.07;2.50;;;16.00;99.90;;;15.55;80.87;99496.09;5036553;28;20211;-74
2023/08/02 00:42:33;;;;;;;4.37;2.37;;;16.00;99.90;;;15.53;81.10;99496.31;5036458;28;20195;-74
2023/08/02 00:45:06;;;;;;;5.53;2.37;;;15.90;99.90;;;15.56;81.40;99490.47;5036620;28;20227;-74
2023/08/02 00:47:39;;;;;;;5.43;2.37;;;16.00;99.90;;;15.53;81.80;99496.31;5036388;28;20218;-74
2023/08/02 00:50:13;;;;;;;5.67;2.50;;;16.00;99.90;;;15.50;81.20;99496.78;5036350;28;20191;-74
2023/08/02 00:52:45;;;;;;;6.83;2.30;;;16.00;99.90;;;15.50;81.64;99496.78;5036555;28;20191;-74
2023/08/02 00:55:17;;;;;;;9.33;2.50;;;16.00;99.90;;;15.49;82.06;99489.72;5036192;28;20316;-74
2023/08/02 00:57:50;;;;;;;4.90;2.27;;;15.90;99.90;;;15.49;81.81;99497.81;5036145;28;20301;-74
2023/08/02 01:00:22;;;;;;;9.87;2.70;;;15.90;99.90;;;15.47;81.83;99497.19;5035858;28;20657;-74
2023/08/02 01:02:54;;;;;;;6.17;2.40;;;15.90;99.90;;;15.47;81.72;99488.25;5035778;28;20209;-74
2023/08/02 01:05:35;;;;;;;6.13;2.63;;;15.90;99.90;;;15.47;81.72;99491.78;5036041;28;20619;-74
2023/08/02 01:08:14;;;;;;;6.57;2.67;;;15.90;99.90;;;15.52;82.28;99483.88;5035789;28;20206;-74
2023/08/02 01:10:58;;;;;;;5.90;2.43;;;16.00;99.90;;;15.46;81.23;99495.53;5035932;28;20703;-74
2023/08/02 01:13:34;;;;;;;6.53;2.40;;;15.90;99.90;;;15.45;81.36;99483.06;5035852;28;20679;-74
2023/08/02 01:16:08;;;;;;;5.73;2.77;;;15.90;99.90;;;15.44;81.49;99480.63;5035732;28;20337;-74
2023/08/02 01:18:40;;;;;;;9.00;2.90;;;15.90;99.90;;;15.43;81.48;99485.19;5035849;28;20194;-74
2023/08/02 01:21:13;;;;;;;7.87;2.87;;;15.90;99.90;;;15.43;81.71;99485.19;5035755;28;20225;-74
2023/08/02 01:23:45;;;;;;;5.20;2.83;;;15.90;99.90;;;15.42;82.09;99472.75;5035423;28;20697;-74
2023/08/02 01:26:18;;;;;;;8.80;2.77;;;15.90;99.90;;;15.40;82.32;99466.75;5035576;28;20310;-74
2023/08/02 01:28:56;;;;;;;4.73;2.60;;;15.90;99.90;;;15.42;82.09;99467.34;5035587;28;20283;-74
2023/08/02 01:31:28;;;;;;;4.87;2.90;;;15.90;99.90;;;15.39;81.78;99462.41;5035582;28;20615;-74
2023/08/02 01:34:02;;;;;;;8.87;2.93;;;15.80;99.90;;;15.38;81.08;99458.03;5035464;28;20206;-74
2023/08/02 01:36:35;;;;;;;5.57;2.73;;;15.80;99.90;;;15.40;81.67;99463.22;5035372;28;20326;-74
2023/08/02 01:39:08;;;;;;;11.10;3.10;;;15.80;99.90;;;15.38;81.42;99459.91;5035481;28;20217;-74
2023/08/02 01:41:40;;;;;;;8.40;3.03;;;15.80;99.90;;;15.40;81.89;99450.56;5035812;28;20321;-74
2023/08/02 01:44:12;;;;;;;8.23;3.03;;;15.80;99.90;;;15.35;82.31;99439.63;5035193;28;20749;-74
2023/08/02 01:46:44;;;;;;;6.93;3.07;;;15.80;99.90;;;15.35;81.49;99438.78;5035960;28;20317;-74
2023/08/02 01:49:16;;;;;;;8.00;3.37;;;15.80;99.90;;;15.33;82.15;99436.31;5035276;28;20205;-74
2023/08/02 01:51:49;;;;;;;5.00;2.37;;;15.80;99.90;;;15.36;81.52;99435.03;5035249;28;20282;-74
2023/08/02 01:54:21;;;;;;;5.10;2.80;;;15.80;99.90;;;15.36;82.06;99430.47;5035183;28;20218;-74
2023/08/02 01:56:53;;;;;;;4.50;2.50;;;15.80;99.90;;;15.37;81.99;99432.13;5034673;28;20593;-74
2023/08/02 01:59:25;;;;;;;6.17;3.10;;;15.80;99.90;;;15.37;81.51;99431.31;5035088;28;20222;-74
2023/08/02 02:01:57;;;;;;;4.53;2.80;;;15.80;99.90;;;15.33;82.01;99435.50;5035628;28;20191;-74
2023/08/02 02:04:29;;;;;;;4.70;2.67;;;15.80;99.90;;;15.30;82.46;99435.94;5034677;28;20648;-74
2023/08/02 02:07:02;;;;;;;7.77;3.00;;;15.70;99.90;;;15.30;81.83;99431.38;5034870;28;20659;-74
2023/08/02 02:09:34;;;;;;;8.40;3.07;;;15.80;99.90;;;15.31;82.14;99430.31;5034863;28;20195;-74
2023/08/02 02:12:07;;;;;;;9.90;3.30;;;15.80;99.90;;;15.32;82.64;99431.97;5034853;28;20198;-74
2023/08/02 02:14:39;;;;;;;5.40;2.90;;;15.80;99.90;;;15.33;82.06;99425.53;5034672;28;20222;-74
2023/08/02 02:17:11;;;;;;;6.93;3.10;;;15.80;99.90;;;15.33;81.59;99419.31;5034655;28;20305;-74
2023/08/02 02:19:43;;;;;;;5.73;3.10;;;15.80;99.90;;;15.30;81.50;99417.91;5033870;28;20237;-74
2023/08/02 02:22:16;;;;;;;8.43;3.17;;;15.80;99.90;;;15.30;81.98;99415.19;5034315;28;20645;-74
2023/08/02 02:24:48;;;;;;;6.43;2.83;;;15.80;99.90;;;15.31;81.89;99406.03;5034485;28;20194;-74
2023/08/02 02:27:20;;;;;;;4.97;2.57;;;15.80;99.90;;;15.31;81.43;99410.63;5034501;28;20257;-74
2023/08/02 02:29:52;;;;;;;7.77;2.80;;;15.80;99.90;;;15.31;82.07;99422.22;5034399;28;20301;-73
2023/08/02 02:32:24;;;;;;;6.80;3.03;;;15.80;99.90;;;15.33;81.86;99425.53;5034150;28;20634;-73
2023/08/02 02:34:56;;;;;;;8.50;3.00;;;15.80;99.90;;;15.31;81.68;99421.44;5034285;28;20227;-73
2023/08/02 02:37:29;;;;;;;10.37;3.50;;;15.80;99.90;;;15.34;81.85;99420.97;5034431;28;20268;-73
2023/08/02 02:40:01;;;;;;;7.13;3.40;;;15.80;99.90;;;15.33;82.01;99425.53;5034280;28;20188;-73
2023/08/02 02:42:33;;;;;;;8.53;2.93;;;15.80;99.90;;;15.33;81.96;99424.72;5034013;28;20280;-73
2023/08/02 02:45:05;;;;;;;10.50;3.57;;;15.80;99.90;;;15.31;81.39;99427.63;5033818;28;20605;-73
2023/08/02 02:47:36;;;;;;;7.87;3.70;;;15.80;99.90;;;15.33;82.17;99430.94;5034113;28;20285;-73
2023/08/02 02:50:10;;;;;;;5.30;2.57;;;15.80;99.90;;;15.34;81.84;99432.59;5034114;28;20249;-73
2023/08/02 02:52:43;;;;;;;12.67;2.97;;;15.80;99.90;;;15.32;81.68;99426.56;5033772;28;20720;-73
2023/08/02 02:55:15;;;;;;;6.13;2.87;;;15.80;99.90;;;15.36;81.79;99433.19;5033658;28;20775;-73
2023/08/02 02:57:48;;;;;;;5.50;2.87;;;15.80;99.90;;;15.33;82.43;99433.63;5033625;28;20711;-73
2023/08/02 03:00:20;;;;;;;6.03;2.93;;;15.80;99.90;;;15.31;82.07;99430.31;5033952;28;20198;-73
2023/08/02 03:02:52;;;;;;;9.10;3.07;;;15.80;99.90;;;15.31;82.06;99434.91;5033916;28;20282;-73
2023/08/02 03:05:24;;;;;;;10.63;3.20;;;15.80;99.90;;;15.32;81.65;99439.22;5033789;28;20280;-73
2023/08/02 03:07:57;;;;;;;6.63;2.90;;;15.80;99.90;;;15.31;81.78;99435.72;5033789;28;20198;-73
2023/08/02 03:10:29;;;;;;;7.47;2.80;;;15.80;99.90;;;15.29;81.73;99429.72;5033745;28;20195;-73
2023/08/02 03:13:01;;;;;;;5.97;3.10;;;15.80;99.90;;;15.27;81.46;99423.75;5033746;28;20278;-73
2023/08/02 03:15:32;;;;;;;9.00;3.03;;;15.70;99.90;;;15.26;81.88;99430.16;5033375;28;20727;-73
2023/08/02 03:18:04;;;;;;;5.00;2.63;;;15.70;99.90;;;15.24;82.02;99430.38;5033857;28;20301;-73
2023/08/02 03:20:43;;;;;;;8.83;2.80;;;15.70;99.90;;;15.25;81.71;99423.13;5033642;28;20273;-73
2023/08/02 03:23:16;;;;;;;6.13;2.80;;;15.70;99.90;;;15.17;81.54;99420.72;5033617;28;20190;-73
2023/08/02 03:25:48;;;;;;;8.67;2.90;;;15.60;99.90;;;15.14;82.43;99421.97;5033486;28;20337;-73
2023/08/02 03:28:20;;;;;;;6.77;2.90;;;15.60;99.90;;;15.12;82.00;99417.84;5033473;28;20219;-73
2023/08/02 03:30:54;;;;;;;5.20;2.80;;;15.60;99.90;;;15.10;81.61;99414.56;5033270;28;20217;-73
2023/08/02 03:33:28;;;;;;;7.20;3.00;;;15.60;99.90;;;15.10;82.14;99422.66;5033401;28;20194;-73
2023/08/02 03:35:59;;;;;;;6.83;2.83;;;15.50;99.90;;;15.07;82.74;99421.22;5033286;28;20233;-73
2023/08/02 03:38:32;;;;;;;7.73;2.60;;;15.50;99.90;;;15.05;81.97;99423.31;5033054;28;20751;-73
2023/08/02 03:41:04;;;;;;;7.37;3.20;;;15.50;99.90;;;15.09;81.91;99423.69;5033387;28;20285;-73
2023/08/02 03:43:36;;;;;;;7.10;2.80;;;15.50;99.90;;;15.08;82.52;99428.25;5033502;28;20242;-73
2023/08/02 03:46:08;;;;;;;5.70;2.83;;;15.60;99.90;;;15.09;82.45;99419.13;5033288;28;20241;-73
2023/08/02 03:48:40;;;;;;;9.87;3.43;;;15.50;99.90;;;15.13;82.42;99419.50;5033313;28;20186;-73
2023/08/02 03:51:12;;;;;;;6.23;2.87;;;15.60;99.90;;;15.12;82.14;99426.78;5033316;28;20282;-73
2023/08/02 03:53:45;;;;;;;7.20;3.03;;;15.50;99.90;;;15.12;83.08;99423.25;5033283;28;20274;-73
2023/08/02 03:56:17;;;;;;;4.53;2.80;;;15.50;99.90;;;15.10;82.76;99420.75;5033202;28;20237;-73
2023/08/02 03:58:49;;;;;;;8.07;3.43;;;15.50;99.90;;;14.97;82.62;99409.28;5033143;28;20230;-73
2023/08/02 04:01:21;;;;;;;7.70;3.40;;;15.40;99.90;;;15.01;83.46;99413.19;5033169;28;20282;-73
2023/08/02 04:03:53;;;;;;;6.70;3.07;;;15.40;99.90;;;15.00;82.69;99408.84;5033160;28;20202;-73
2023/08/02 04:06:25;;;;;;;8.43;3.10;;;15.40;99.90;;;14.99;83.00;99399.13;5033040;28;20223;-73
2023/08/02 04:08:58;;;;;;;5.13;2.57;;;15.40;99.90;;;14.90;82.87;99403.13;5033196;28;20194;-73
2023/08/02 04:11:30;;;;;;;4.83;3.20;;;15.30;99.90;;;14.93;82.76;99386.53;5033144;28;20222;-73
2023/08/02 04:14:02;;;;;;;7.87;2.93;;;15.30;99.90;;;14.91;83.17;99388.59;5033136;28;20218;-73
2023/08/02 04:16:34;;;;;;;8.20;3.30;;;15.30;99.90;;;14.93;82.65;99381.94;5032698;28;20772;-73
2023/08/02 04:19:06;;;;;;;7.03;2.90;;;15.30;99.90;;;14.98;82.59;99375.91;5033046;28;20580;-73
2023/08/02 04:21:38;;;;;;;5.80;2.87;;;15.40;99.90;;;14.99;82.97;99389.16;5033099;28;20286;-74
2023/08/02 04:24:11;;;;;;;6.67;2.67;;;15.40;99.90;;;15.01;82.43;99380.84;5033036;28;20199;-74
2023/08/02 04:26:43;;;;;;;4.83;2.73;;;15.40;99.90;;;15.00;83.06;99376.53;5032882;28;20231;-74
2023/08/02 04:29:16;;;;;;;7.90;2.87;;;15.40;99.90;;;15.01;82.83;99375.44;5033002;28;20278;-74
2023/08/02 04:31:48;;;;;;;5.77;3.20;;;15.40;99.90;;;14.99;82.89;99385.63;5033210;28;20245;-74
2023/08/02 04:34:19;;;;;;;5.60;2.83;;;15.40;99.90;;;14.87;82.63;99373.91;5032940;28;20215;-74
2023/08/02 04:36:52;;;;;;;5.23;3.17;;;15.40;99.90;;;14.84;83.26;99382.44;5032755;28;20783;-73
2023/08/02 04:39:25;;;;;;;6.00;2.70;;;15.20;99.90;;;14.88;83.75;99375.56;5032781;28;20210;-73
2023/08/02 04:42:00;;;;;;;8.37;2.90;;;15.30;99.90;;;14.93;83.85;99381.13;5033644;28;20195;-73
2023/08/02 04:44:32;;;;;;;9.17;2.83;;;15.40;99.90;;;14.88;83.82;99372.88;5036234;28;20272;-74
2023/08/02 04:47:04;;;;;;;4.43;3.00;;;15.30;99.90;;;14.86;84.27;99364.22;5036489;28;20237;-74
2023/08/02 04:49:36;;;;;;;4.93;3.13;;;15.30;99.90;;;14.82;84.38;99365.69;5036394;28;20194;-74
2023/08/02 04:52:08;;;;;;;6.10;3.60;;;15.30;99.90;;;14.86;84.55;99359.66;5036391;28;20191;-74
2023/08/02 04:54:41;;;;;;;5.17;3.07;;;15.30;99.90;;;14.89;84.00;99363.75;5036200;28;20227;-74
2023/08/02 04:57:13;;;;;;;6.20;3.37;;;15.30;99.90;;;14.88;84.44;99364.78;5036477;28;20278;-74
2023/08/02 04:59:45;;;;;;;5.17;3.00;;;15.30;99.90;;;14.91;84.34;99361.66;5036184;28;20249;-74
2023/08/02 05:02:18;;;;;;;9.17;3.33;;;15.40;99.90;;;14.94;84.47;99351.25;5036182;28;20199;-74
2023/08/02 05:04:53;;;;;;;4.83;3.30;;;15.40;99.90;;;14.98;84.13;99349.78;5036076;28;20273;-74
2023/08/02 05:07:25;;;;;;;6.83;3.13;;;15.50;99.90;;;15.03;85.08;99349.94;5036077;28;20274;-74
2023/08/02 05:10:03;;;;;;;8.40;3.27;;;15.50;99.90;;;15.10;84.79;99347.19;5035731;28;20198;-74
2023/08/02 05:12:38;;;;;;;8.73;3.50;;;15.60;99.90;;;15.12;84.79;99340.50;5035931;28;20195;-74
2023/08/02 05:15:12;;;;;;;5.57;3.17;;;15.60;99.90;;;15.16;84.33;99340.88;5036069;28;20261;-74
2023/08/02 05:17:43;;;;;;;7.93;3.10;;;15.60;99.90;;;15.20;84.19;99339.41;5035868;28;20230;-74
2023/08/02 05:20:16;;;;;;;12.80;3.70;;;15.70;99.90;;;15.22;84.74;99342.69;5035853;28;20195;-74
2023/08/02 05:22:49;;;;;;;8.57;3.40;;;15.70;99.90;;;15.23;83.66;99338.94;5035973;28;20245;-74
2023/08/02 05:25:27;;;;;;;5.07;3.10;;;15.70;99.90;;;15.21;83.99;99338.31;5035305;28;20230;-74
2023/08/02 05:27:59;;;;;;;5.27;3.17;;;15.70;99.90;;;15.20;83.96;99344.78;5035685;28;20191;-74
2023/08/02 05:30:33;;;;;;;10.70;3.60;;;15.70;99.90;;;15.22;83.45;99348.06;5035337;28;20742;-74
2023/08/02 05:33:06;;;;;;;7.77;3.30;;;15.70;99.90;;;15.22;83.38;99343.50;5035256;28;20599;-74
2023/08/02 05:35:38;;;;;;;5.10;3.03;;;15.70;99.90;;;15.22;82.81;99343.50;5036314;28;20254;-74
2023/08/02 05:38:10;;;;;;;5.97;3.40;;;15.70;99.90;;;15.24;83.36;99338.72;5035129;28;20198;-74
2023/08/02 05:40:43;;;;;;;7.50;3.10;;;15.80;99.90;;;15.28;83.56;99336.38;5035385;28;20596;-74
2023/08/02 05:43:15;;;;;;;6.70;3.10;;;15.80;99.90;;;15.24;83.52;99341.41;5035175;28;20294;-74
2023/08/02 05:45:54;;;;;;;7.63;3.67;;;15.80;99.90;;;15.23;83.63;99330.84;5035339;28;20226;-74
2023/08/02 05:48:25;;;;;;;6.97;4.30;;;15.70;99.90;;;15.21;83.39;99336.47;5035331;28;20241;-73
2023/08/02 05:50:57;;;;;;;6.23;3.80;;;15.70;99.90;;;15.26;83.86;99338.50;5035536;28;20201;-73
2023/08/02 05:53:29;;;;;;;9.97;4.30;;;15.80;99.90;;;15.26;83.92;99338.50;5034026;28;20215;-74
2023/08/02 05:56:02;;;;;;;6.37;3.40;;;15.80;99.90;;;15.27;83.77;99334.75;5034830;28;20313;-74
2023/08/02 05:58:34;;;;;;;5.93;3.20;;;15.80;99.90;;;15.24;83.43;99329.78;5035062;28;20215;-74
2023/08/02 06:01:06;;;;;;;5.43;3.50;;;15.80;99.90;;;15.23;83.17;99330.84;5034787;28;20223;-74
2023/08/02 06:03:38;;;;;;;7.23;3.73;;;15.70;99.90;;;15.25;83.94;99328.75;5035280;28;20199;-74
2023/08/02 06:06:10;;;;;;;5.73;3.70;;;15.80;99.90;;;15.26;84.08;99316.94;5034853;28;20739;-74
2023/08/02 06:08:45;;;;;;;6.37;3.60;;;15.80;99.90;;;15.28;84.53;99320.22;5034946;28;20191;-74
2023/08/02 06:11:17;;;;;;;5.50;3.47;;;15.80;99.90;;;15.29;84.14;99308.38;5034869;28;20219;-74
2023/08/02 06:13:49;;;;;;;8.83;3.80;;;15.80;99.90;;;15.33;84.48;99290.72;5034865;28;20565;-74
2023/08/02 06:16:22;;;;;;;6.97;3.40;;;15.80;99.90;;;15.37;84.72;99297.31;5034592;28;20594;-74
2023/08/02 06:18:54;;;;;;;6.60;3.60;;;15.90;99.90;;;15.41;85.40;99293.06;5034658;28;20215;-74
2023/08/02 06:21:26;;;;;;;8.37;3.37;;;15.90;99.90;;;15.44;83.81;99295.34;5034669;28;20286;-74
2023/08/02 06:23:58;;;;;;;5.63;3.40;;;15.90;99.90;;;15.45;83.98;99310.47;5034660;28;20198;-74
2023/08/02 06:26:32;;;;;;;5.47;3.13;;;16.00;99.90;;;15.47;83.67;99304.84;5034518;28;20309;-74
2023/08/02 06:29:06;;;;;;;8.20;3.60;;;16.00;99.90;;;15.52;84.20;99300.44;5034548;28;20213;-74
2023/08/02 06:31:38;;;;;;;5.37;3.10;;;16.00;99.90;;;15.55;83.89;99294.59;5034511;28;20217;-74
2023/08/02 06:34:10;;;;;;;7.67;3.60;;;16.10;99.90;;;15.59;84.72;99285.00;5034457;28;20273;-74
2023/08/02 06:36:41;;;;;;;7.23;3.50;;;16.10;99.90;;;15.63;84.12;99279.97;5034340;28;20269;-74
2023/08/02 06:39:13;;;;;;;5.63;3.50;;;16.20;99.90;;;15.68;84.47;99272.84;5034256;28;20215;-74
2023/08/02 06:41:46;;;;;;;5.47;2.90;;;16.20;99.90;;;15.71;84.44;99255.38;5034325;28;20285;-74
2023/08/02 06:44:18;;;;;;;10.47;3.40;;;16.30;99.90;;;15.80;84.49;99263.97;5033855;28;20665;-74
2023/08/02 06:46:50;;;;;;;4.97;3.10;;;16.40;99.90;;;15.87;84.79;99265.53;5033801;28;20288;-74
2023/08/02 06:49:22;;;;;;;5.30;3.00;;;16.50;99.90;;;15.97;83.98;99257.69;5033889;28;20195;-74
2023/08/02 06:51:54;;;;;;;6.37;2.97;;;16.50;99.90;;;16.03;84.25;99258.63;5033803;28;20302;-74
2023/08/02 06:54:26;;;;;;;5.13;3.07;;;16.60;99.90;;;16.07;84.27;99260.63;5034068;28;20248;-74
2023/08/02 06:56:59;;;;;;;8.03;3.10;;;16.60;99.90;;;16.13;82.97;99253.50;5034040;28;20218;-74
2023/08/02 06:59:31;;;;;;;5.73;3.30;;;16.70;99.90;;;16.17;83.91;99260.06;5034784;28;20211;-74
2023/08/02 07:02:06;;;;;;;4.67;2.67;;;16.70;99.90;;;16.22;84.05;99252.94;5033638;28;20660;-74
2023/08/02 07:04:38;;;;;;;4.93;2.50;;;16.80;99.90;;;16.30;84.31;99250.94;5033425;28;20202;-75
2023/08/02 07:07:10;;;;;;;3.80;2.73;;;16.90;99.90;;;16.36;81.86;99258.09;5033529;28;20676;-75
2023/08/02 07:09:42;;;;;;;9.67;2.80;;;16.90;99.90;;;16.43;79.07;99254.25;5033544;28;20676;-75
2023/08/02 07:12:15;;;;;;;20.03;4.03;;;17.00;99.90;;;16.46;80.70;99248.38;5033800;28;20274;-75
2023/08/02 07:14:47;;;;;;;6.43;2.73;;;17.00;99.90;;;16.48;82.07;99240.00;5033394;28;20724;-75
2023/08/02 07:17:19;;;;;;;5.37;2.50;;;17.00;99.90;;;16.52;82.21;99231.22;5033740;28;20286;-75
2023/08/02 07:19:51;;;;;;;4.23;2.60;;;17.10;99.90;;;16.54;82.34;99218.28;5033613;28;20215;-75
2023/08/02 07:22:23;;;;;;;6.63;2.70;;;17.10;99.90;;;16.57;82.48;99212.47;5033647;28;20293;-75
2023/08/02 07:24:55;;;;;;;4.93;2.73;;;17.10;99.90;;;16.62;81.81;99198.22;5033219;28;20605;-75
2023/08/02 07:27:28;;;;;;;5.10;2.63;;;17.20;99.90;;;16.66;81.26;99188.59;5033814;28;20285;-75
2023/08/02 07:29:59;;;;;;;4.10;2.37;;;17.20;99.90;;;16.69;82.88;99199.75;5033535;28;20198;-75
2023/08/02 07:32:31;;;;;;;4.23;2.23;;;17.30;99.90;;;16.82;81.47;99189.72;5033480;28;20260;-75
2023/08/02 07:35:04;;;;;;;5.77;2.60;;;17.40;99.90;;;16.86;80.60;99177.38;5033352;28;20226;-75
2023/08/02 07:37:35;;;;;;;5.60;2.70;;;17.40;99.90;;;16.96;78.83;99173.00;5033473;28;20226;-74
2023/08/02 07:40:09;;;;;;;3.47;2.20;;;17.50;99.90;;;17.02;76.38;99182.88;5033392;28;20375;-74
2023/08/02 07:42:43;;;;;;;3.20;1.97;;;17.60;99.90;;;17.07;77.28;99201.09;5033946;28;20214;-74
2023/08/02 07:45:16;;;;;;;3.67;2.03;;;17.60;99.90;;;17.07;79.99;99187.56;5033358;28;20318;-74
2023/08/02 07:47:48;;;;;;;3.40;2.43;;;17.60;99.90;;;17.11;78.99;99180.63;5033422;28;20321;-74
2023/08/02 07:50:20;;;;;;;4.30;2.33;;;17.70;99.90;;;17.17;82.13;99182.34;5033576;28;20225;-74
2023/08/02 07:52:52;;;;;;;3.53;2.30;;;17.70;99.90;;;17.21;80.93;99188.94;5033295;28;20215;-74
2023/08/02 07:55:24;;;;;;;3.10;2.30;;;17.80;99.90;;;17.24;77.54;99186.56;5033245;28;20222;-75
2023/08/02 07:57:57;;;;;;;4.60;2.60;;;17.80;99.90;;;17.29;79.37;99185.03;5033285;28;20197;-75
2023/08/02 08:00:29;;;;;;;4.10;2.20;;;17.90;99.90;;;17.31;78.09;99186.44;5033383;28;20253;-75
2023/08/02 08:03:03;;;;;;;5.57;2.80;;;17.80;99.90;;;17.31;79.11;99172.91;5033231;28;20278;-75
2023/08/02 08:05:35;;;;;;;9.40;2.27;;;17.90;99.90;;;17.32;79.01;99185.38;5033337;28;20241;-75
2023/08/02 08:08:07;;;;;;;4.43;2.30;;;17.90;99.90;;;17.35;80.41;99178.66;5033203;28;20278;-75
2023/08/02 08:10:39;;;;;;;3.77;2.17;;;17.90;99.90;;;17.43;79.15;99167.44;5033195;28;20219;-75
2023/08/02 08:13:12;;;;;;;4.17;2.03;;;18.00;99.90;;;17.51;79.12;99154.34;5033156;28;20277;-75
2023/08/02 08:15:44;;;;;;;4.70;2.10;;;18.10;99.90;;;17.61;77.97;99153.72;5033042;28;20234;-75
2023/08/02 08:18:16;;;;;;;3.07;2.00;;;18.20;99.90;;;17.72;78.18;99148.25;5035746;28;20707;-75
2023/08/02 08:20:48;;;;;;;2.17;1.90;;;18.30;99.90;;;17.73;78.32;99147.19;5036605;28;20696;-75
2023/08/02 08:23:20;;;;;;;2.83;1.90;;;18.30;99.90;;;17.81;78.36;99134.31;5036943;28;20546;-75
2023/08/02 08:25:52;;;;;;;2.23;1.80;;;18.40;99.90;;;17.83;78.34;99129.47;5036822;28;20223;-75
2023/08/02 08:28:25;;;;;;;3.80;2.40;;;18.40;99.90;;;17.94;75.19;99142.09;5036843;28;20203;-75
2023/08/02 08:31:01;;;;;;;2.40;2.00;;;18.50;99.90;;;17.97;77.31;99138.91;5036766;28;20217;-75
2023/08/02 08:33:34;;;;;;;5.13;2.50;;;18.50;99.90;;;18.00;78.02;99131.09;5036428;28;20282;-75
2023/08/02 08:36:12;;;;;;;2.40;1.87;;;18.60;99.90;;;18.05;76.73;99116.81;5036601;28;20681;-73
2023/08/02 08:38:44;;;;;;;2.70;2.10;;;18.60;99.90;;;18.22;75.36;99133.84;5036599;28;20195;-75
2023/08/02 08:41:18;;;;;;;5.23;2.40;;;18.70;99.90;;;18.39;77.20;99131.94;5036502;28;20211;-75
2023/08/02 08:43:52;;;;;;;2.77;2.37;;;18.90;99.90;;;18.44;74.39;99121.19;5036409;28;20305;-75
2023/08/02 08:46:25;;;;;;;2.80;2.20;;;19.00;99.90;;;18.48;75.10;99111.50;5036120;28;20806;-75
2023/08/02 08:48:59;;;;;;;2.80;1.97;;;19.10;99.90;;;18.69;74.79;99116.13;5036098;28;20230;-75
2023/08/02 08:51:33;;;;;;;2.60;1.80;;;19.20;99.90;;;18.70;75.66;99115.03;5036090;28;20194;-75
2023/08/02 08:54:21;;;;;;;6.87;2.40;;;19.30;99.90;;;18.66;75.03;99099.56;5036279;28;20195;-75
2023/08/02 08:56:54;;;;;;;4.07;2.20;;;19.20;99.90;;;18.66;75.49;99096.84;5035904;28;20781;-75
2023/08/02 08:59:28;;;;;;;2.80;2.40;;;19.20;99.90;;;18.63;75.60;99097.34;5036238;28;20286;-75
2023/08/02 09:02:02;;;;;;;3.60;2.20;;;19.20;99.90;;;18.64;74.67;99086.25;5036111;28;20260;-75
2023/08/02 09:04:37;;;;;;;3.20;2.30;;;19.20;99.90;;;18.62;75.70;99080.25;5036093;28;20201;-75
2023/08/02 09:07:09;;;;;;;3.20;2.17;;;19.10;99.90;;;18.64;73.62;99088.94;5035763;28;20612;-75
2023/08/02 09:09:41;;;;;;;3.40;2.30;;;19.20;99.90;;;18.64;75.37;99080.81;5035716;28;20668;-75
2023/08/02 09:12:13;;;;;;;3.40;1.90;;;19.10;99.90;;;18.62;75.42;99077.56;5036023;28;20274;-75
2023/08/02 09:15:04;;;;;;;4.53;2.03;;;19.10;99.90;;;18.59;75.30;99064.50;5035903;28;20191;-75
2023/08/02 09:17:49;;;;;;;4.17;2.30;;;19.10;99.90;;;18.58;75.17;99053.91;5035850;28;20206;-75
2023/08/02 09:20:23;;;;;;;5.17;2.47;;;19.10;99.90;;;18.57;75.57;99044.13;5035435;28;20638;-75
2023/08/02 09:22:55;;;;;;;5.17;2.80;;;19.00;99.90;;;18.55;74.71;99040.88;5038301;28;20202;-74
2023/08/02 09:25:29;;;;;;;3.53;2.40;;;19.10;99.90;;;18.54;74.54;99039.22;5037517;28;20266;-74
2023/08/02 09:28:12;;;;;;;4.40;2.50;;;19.00;99.90;;;18.57;74.25;99022.44;5035497;28;20190;-74
2023/08/02 09:30:45;;;;;;;2.80;2.30;;;19.00;99.90;;;18.60;75.42;99011.91;5035763;28;20269;-75
2023/08/02 09:33:17;;;;;;;5.17;2.70;;;19.00;99.90;;;18.60;74.23;99006.50;5035658;28;20203;-75
2023/08/02 09:35:55;;;;;;;4.50;2.50;;;19.10;99.90;;;18.64;74.18;99006.81;5035582;28;20227;-75
2023/08/02 09:38:27;;;;;;;6.80;3.03;;;19.10;99.90;;;18.71;74.71;98993.88;5035240;28;20233;-75
2023/08/02 09:40:59;;;;;;;3.57;2.73;;;19.20;99.90;;;18.74;75.00;98991.47;5035155;28;20707;-75
2023/08/02 09:43:51;;;;;;;3.87;2.70;;;19.20;99.90;;;18.78;74.51;98991.78;5035450;28;20211;-75
2023/08/02 09:46:34;;;;;;;6.20;2.93;;;19.20;99.90;;;18.85;73.60;98986.16;5036189;28;20254;-75
2023/08/02 09:49:18;;;;;;;5.03;2.70;;;19.30;99.90;;;18.86;74.82;98994.03;5035053;28;20711;-75
2023/08/02 09:51:50;;;;;;;5.93;2.67;;;19.30;99.90;;;18.84;73.83;98977.19;5035023;28;20187;-75
2023/08/02 09:54:22;;;;;;;3.87;2.50;;;19.30;99.90;;;18.84;73.72;98984.50;5034901;28;20203;-75
2023/08/02 09:56:56;;;;;;;3.37;2.50;;;19.30;99.90;;;18.83;74.41;98983.72;5035062;28;20338;-75
2023/08/02 09:59:32;;;;;;;3.80;2.60;;;19.30;99.90;;;18.88;76.34;98980.22;5034829;28;20725;-75
2023/08/02 10:02:06;;;;;;;5.23;2.80;;;19.30;99.90;;;18.81;74.52;98982.31;5035055;28;20302;-75
2023/08/02 10:04:39;;;;;;;6.30;2.97;;;19.20;99.90;;;18.79;76.27;98982.59;5035016;28;20274;-75
2023/08/02 10:07:15;;;;;;;7.77;3.23;;;19.20;99.90;;;18.78;78.25;98980.94;5034995;28;20191;-75
2023/08/02 10:09:50;;;;;;;5.73;3.17;;;19.20;99.90;;;18.76;78.78;98977.69;5034962;28;20194;-75
2023/08/02 10:12:25;;;;;;;4.63;3.40;;;19.20;99.90;;;18.78;79.00;98966.56;5034581;28;20528;-75
2023/08/02 10:14:58;;;;;;;3.43;3.07;;;19.20;99.90;;;18.72;79.69;98960.28;5034753;28;20265;-75
2023/08/02 10:17:33;;;;;;;5.77;3.53;;;19.10;99.90;;;18.71;79.85;98954.03;5034780;28;20191;-75
2023/08/02 10:20:05;;;;;;;5.77;3.40;;;19.10;99.90;;;18.72;80.07;98947.56;5035012;28;20191;-75
2023/08/02 10:22:40;;;;;;;4.73;3.40;;;19.10;99.90;;;18.71;80.77;98954.03;5034271;28;20691;-75
2023/08/02 10:25:16;;;;;;;4.37;3.20;;;19.10;99.90;;;18.74;81.12;98952.69;5034585;28;20309;-75
2023/08/02 10:27:50;;;;;;;5.30;2.93;;;19.10;99.90;;;18.74;81.82;98942.69;5034265;28;20186;-75
2023/08/02 10:30:22;;;;;;;4.67;3.40;;;19.10;99.90;;;18.68;81.94;98940.16;5034516;28;20194;-75
2023/08/02 10:33:14;;;;;;;3.63;3.23;;;19.10;99.90;;;18.67;82.19;98942.06;5034500;28;20233;-74
2023/08/02 10:36:02;;;;;;;5.67;3.70;;;19.00;99.90;;;18.64;81.70;98948.00;5034152;28;20264;-74
2023/08/02 10:38:53;;;;;;;4.73;3.33;;;19.00;99.90;;;18.63;82.32;98932.78;5034353;28;20187;-74
2023/08/02 10:41:27;;;;;;;7.00;3.60;;;19.00;99.90;;;18.58;82.47;98931.94;5033887;28;20223;-74
2023/08/02 10:44:16;;;;;;;5.40;3.80;;;18.90;99.90;;;18.52;83.26;98924.84;5034097;28;20254;-74